sensor_id;sensor_type;location;lat;lon;timestamp;temperature;humidity
770;DHT22;368;48.698;9.116;2023-05-07T00:00:34;11.80;99.90
770;DHT22;368;48.698;9.116;2023-05-07T00:03:00;12.00;99.90
770;DHT22;368;48.698;9.116;2023-05-07T00:05:29;11.80;99.90
770;DHT22;368;48.698;9.116;2023-05-07T00:07:56;11.80;99.90
770;DHT22;368;48.698;9.116;2023-05-07T00:10:23;11.90;99.90
770;DHT22;368;48.698;9.116;2023-05-07T00:12:50;11.80;99.90
770;DHT22;368;48.698;9.116;2023-05-07T00:15:17;11.90;99.90
770;DHT22;368;48.698;9.116;2023-05-07T00:17:44;12.00;99.90
770;DHT22;368;48.698;9.116;2023-05-07T00:20:11;11.80;99.90
770;DHT22;368;48.698;9.116;2023-05-07T00:22:40;11.70;99.90
770;DHT22;368;48.698;9.116;2023-05-07T00:25:07;11.80;99.90
770;DHT22;368;48.698;9.116;2023-05-07T00:27:35;11.70;99.90
770;DHT22;368;48.698;9.116;2023-05-07T00:30:02;11.80;99.90
770;DHT22;368;48.698;9.116;2023-05-07T00:32:29;11.90;99.90
770;DHT22;368;48.698;9.116;2023-05-07T00:34:56;12.10;99.90
770;DHT22;368;48.698;9.116;2023-05-07T00:37:23;12.50;99.90
770;DHT22;368;48.698;9.116;2023-05-07T00:39:52;12.60;99.90
770;DHT22;368;48.698;9.116;2023-05-07T00:42:18;12.40;99.90
770;DHT22;368;48.698;9.116;2023-05-07T00:44:46;12.30;99.90
770;DHT22;368;48.698;9.116;2023-05-07T00:47:13;12.60;99.90
770;DHT22;368;48.698;9.116;2023-05-07T00:49:42;12.60;99.90
770;DHT22;368;48.698;9.116;2023-05-07T00:52:11;12.80;99.90
770;DHT22;368;48.698;9.116;2023-05-07T00:54:40;12.60;99.90
770;DHT22;368;48.698;9.116;2023-05-07T00:57:10;12.50;99.90
770;DHT22;368;48.698;9.116;2023-05-07T00:59:37;12.60;99.90
770;DHT22;368;48.698;9.116;2023-05-07T01:02:04;12.50;99.90
770;DHT22;368;48.698;9.116;2023-05-07T01:04:30;12.50;99.90
770;DHT22;368;48.698;9.116;2023-05-07T01:06:58;12.80;99.90
770;DHT22;368;48.698;9.116;2023-05-07T01:09:26;12.70;99.90
770;DHT22;368;48.698;9.116;2023-05-07T01:11:55;12.50;99.90
770;DHT22;368;48.698;9.116;2023-05-07T01:14:24;12.60;99.90
770;DHT22;368;48.698;9.116;2023-05-07T01:16:51;12.50;99.90
770;DHT22;368;48.698;9.116;2023-05-07T01:19:19;12.80;99.90
770;DHT22;368;48.698;9.116;2023-05-07T01:21:48;12.90;99.90
770;DHT22;368;48.698;9.116;2023-05-07T01:24:16;12.60;99.90
770;DHT22;368;48.698;9.116;2023-05-07T01:26:44;12.80;99.90
770;DHT22;368;48.698;9.116;2023-05-07T01:29:11;12.60;99.90
770;DHT22;368;48.698;9.116;2023-05-07T01:31:39;12.90;99.90
770;DHT22;368;48.698;9.116;2023-05-07T01:34:07;12.70;99.90
770;DHT22;368;48.698;9.116;2023-05-07T01:36:35;12.70;99.90
770;DHT22;368;48.698;9.116;2023-05-07T01:39:03;12.50;99.90
770;DHT22;368;48.698;9.116;2023-05-07T01:41:32;12.80;99.90
770;DHT22;368;48.698;9.116;2023-05-07T01:43:59;12.70;99.90
770;DHT22;368;48.698;9.116;2023-05-07T01:46:26;12.60;99.90
770;DHT22;368;48.698;9.116;2023-05-07T01:48:53;12.50;99.90
770;DHT22;368;48.698;9.116;2023-05-07T01:51:21;12.60;99.90
770;DHT22;368;48.698;9.116;2023-05-07T01:53:48;12.30;99.90
770;DHT22;368;48.698;9.116;2023-05-07T01:56:16;12.40;99.90
770;DHT22;368;48.698;9.116;2023-05-07T01:58:45;12.40;99.90
770;DHT22;368;48.698;9.116;2023-05-07T02:01:12;12.40;99.90
770;DHT22;368;48.698;9.116;2023-05-07T02:03:39;12.10;99.90
770;DHT22;368;48.698;9.116;2023-05-07T02:06:06;12.00;99.90
770;DHT22;368;48.698;9.116;2023-05-07T02:08:33;11.90;99.90
770;DHT22;368;48.698;9.116;2023-05-07T02:11:00;11.90;99.90
770;DHT22;368;48.698;9.116;2023-05-07T02:13:32;11.80;99.90
770;DHT22;368;48.698;9.116;2023-05-07T02:16:00;11.60;99.90
770;DHT22;368;48.698;9.116;2023-05-07T02:18:27;11.40;99.90
770;DHT22;368;48.698;9.116;2023-05-07T02:20:54;11.50;99.90
770;DHT22;368;48.698;9.116;2023-05-07T02:23:21;11.60;99.90
770;DHT22;368;48.698;9.116;2023-05-07T02:25:48;11.50;99.90
770;DHT22;368;48.698;9.116;2023-05-07T02:28:15;11.50;99.90
770;DHT22;368;48.698;9.116;2023-05-07T02:30:41;11.60;99.90
770;DHT22;368;48.698;9.116;2023-05-07T02:33:09;11.40;99.90
770;DHT22;368;48.698;9.116;2023-05-07T02:35:37;11.30;99.90
770;DHT22;368;48.698;9.116;2023-05-07T02:38:04;11.50;99.90
770;DHT22;368;48.698;9.116;2023-05-07T02:40:31;11.30;99.90
770;DHT22;368;48.698;9.116;2023-05-07T02:43:00;11.30;99.90
770;DHT22;368;48.698;9.116;2023-05-07T02:45:26;11.40;99.90
770;DHT22;368;48.698;9.116;2023-05-07T02:47:53;11.30;99.90
770;DHT22;368;48.698;9.116;2023-05-07T02:50:22;11.20;99.90
770;DHT22;368;48.698;9.116;2023-05-07T02:52:48;11.20;99.90
770;DHT22;368;48.698;9.116;2023-05-07T02:55:15;11.00;99.90
770;DHT22;368;48.698;9.116;2023-05-07T02:57:42;11.30;99.90
770;DHT22;368;48.698;9.116;2023-05-07T03:00:21;11.30;99.90
770;DHT22;368;48.698;9.116;2023-05-07T03:02:48;11.20;99.90
770;DHT22;368;48.698;9.116;2023-05-07T03:05:15;11.20;99.90
770;DHT22;368;48.698;9.116;2023-05-07T03:07:43;11.20;99.90
770;DHT22;368;48.698;9.116;2023-05-07T03:10:11;11.20;99.90
770;DHT22;368;48.698;9.116;2023-05-07T03:12:38;11.20;99.90
770;DHT22;368;48.698;9.116;2023-05-07T03:15:06;11.00;99.90
770;DHT22;368;48.698;9.116;2023-05-07T03:17:33;11.10;99.90
770;DHT22;368;48.698;9.116;2023-05-07T03:20:00;10.70;99.90
770;DHT22;368;48.698;9.116;2023-05-07T03:22:27;10.90;99.90
770;DHT22;368;48.698;9.116;2023-05-07T03:24:55;10.70;99.90
770;DHT22;368;48.698;9.116;2023-05-07T03:27:22;10.80;99.90
770;DHT22;368;48.698;9.116;2023-05-07T03:29:48;11.10;99.90
770;DHT22;368;48.698;9.116;2023-05-07T03:32:15;11.10;99.90
770;DHT22;368;48.698;9.116;2023-05-07T03:34:42;10.70;99.90
770;DHT22;368;48.698;9.116;2023-05-07T03:37:09;10.90;99.90
770;DHT22;368;48.698;9.116;2023-05-07T03:39:35;10.80;99.90
770;DHT22;368;48.698;9.116;2023-05-07T03:42:04;10.80;99.90
770;DHT22;368;48.698;9.116;2023-05-07T03:44:30;10.90;99.90
770;DHT22;368;48.698;9.116;2023-05-07T03:46:57;10.40;99.90
770;DHT22;368;48.698;9.116;2023-05-07T03:49:24;10.50;99.90
770;DHT22;368;48.698;9.116;2023-05-07T03:51:51;10.50;99.90
770;DHT22;368;48.698;9.116;2023-05-07T03:54:17;10.30;99.90
770;DHT22;368;48.698;9.116;2023-05-07T03:56:44;10.50;99.90
770;DHT22;368;48.698;9.116;2023-05-07T03:59:13;10.30;99.90
770;DHT22;368;48.698;9.116;2023-05-07T04:01:40;10.50;99.90
770;DHT22;368;48.698;9.116;2023-05-07T04:04:07;10.40;99.90
770;DHT22;368;48.698;9.116;2023-05-07T04:06:34;10.60;99.90
770;DHT22;368;48.698;9.116;2023-05-07T04:09:01;10.40;99.90
770;DHT22;368;48.698;9.116;2023-05-07T04:11:27;10.30;99.90
770;DHT22;368;48.698;9.116;2023-05-07T04:13:54;10.40;99.90
770;DHT22;368;48.698;9.116;2023-05-07T04:16:22;10.50;99.90
770;DHT22;368;48.698;9.116;2023-05-07T04:18:49;10.20;99.90
770;DHT22;368;48.698;9.116;2023-05-07T04:21:17;10.70;99.90
770;DHT22;368;48.698;9.116;2023-05-07T04:23:46;10.60;99.90
770;DHT22;368;48.698;9.116;2023-05-07T04:26:13;10.40;99.90
770;DHT22;368;48.698;9.116;2023-05-07T04:28:40;10.50;99.90
770;DHT22;368;48.698;9.116;2023-05-07T04:31:07;10.30;99.90
770;DHT22;368;48.698;9.116;2023-05-07T04:33:35;10.40;99.90
770;DHT22;368;48.698;9.116;2023-05-07T04:36:03;10.40;99.90
770;DHT22;368;48.698;9.116;2023-05-07T04:38:30;10.50;99.90
770;DHT22;368;48.698;9.116;2023-05-07T04:40:57;10.40;99.90
770;DHT22;368;48.698;9.116;2023-05-07T04:43:24;10.40;99.90
770;DHT22;368;48.698;9.116;2023-05-07T04:45:51;10.70;99.90
770;DHT22;368;48.698;9.116;2023-05-07T04:48:17;10.80;99.90
770;DHT22;368;48.698;9.116;2023-05-07T04:50:48;10.80;99.90
770;DHT22;368;48.698;9.116;2023-05-07T04:53:15;10.80;99.90
770;DHT22;368;48.698;9.116;2023-05-07T04:55:42;10.90;99.90
770;DHT22;368;48.698;9.116;2023-05-07T04:58:09;10.70;99.90
770;DHT22;368;48.698;9.116;2023-05-07T05:00:36;11.00;99.90
770;DHT22;368;48.698;9.116;2023-05-07T05:03:04;11.00;99.90
770;DHT22;368;48.698;9.116;2023-05-07T05:05:31;11.40;99.90
770;DHT22;368;48.698;9.116;2023-05-07T05:07:59;11.50;99.90
770;DHT22;368;48.698;9.116;2023-05-07T05:10:26;11.50;99.90
770;DHT22;368;48.698;9.116;2023-05-07T05:12:53;11.80;99.90
770;DHT22;368;48.698;9.116;2023-05-07T05:15:20;11.60;99.90
770;DHT22;368;48.698;9.116;2023-05-07T05:17:46;11.40;99.90
770;DHT22;368;48.698;9.116;2023-05-07T05:20:13;11.60;99.90
770;DHT22;368;48.698;9.116;2023-05-07T05:22:41;11.50;99.90
770;DHT22;368;48.698;9.116;2023-05-07T05:25:09;11.90;99.90
770;DHT22;368;48.698;9.116;2023-05-07T05:27:36;12.10;99.90
770;DHT22;368;48.698;9.116;2023-05-07T05:30:04;12.40;99.90
770;DHT22;368;48.698;9.116;2023-05-07T05:32:31;12.90;99.90
770;DHT22;368;48.698;9.116;2023-05-07T05:34:58;13.60;99.90
770;DHT22;368;48.698;9.116;2023-05-07T05:37:25;14.30;99.90
770;DHT22;368;48.698;9.116;2023-05-07T05:39:52;14.70;99.90
770;DHT22;368;48.698;9.116;2023-05-07T05:42:21;14.70;99.90
770;DHT22;368;48.698;9.116;2023-05-07T05:44:48;14.50;99.90
770;DHT22;368;48.698;9.116;2023-05-07T05:47:15;14.80;99.90
770;DHT22;368;48.698;9.116;2023-05-07T05:49:42;14.80;99.90
770;DHT22;368;48.698;9.116;2023-05-07T05:52:09;14.70;99.90
770;DHT22;368;48.698;9.116;2023-05-07T05:54:36;15.10;99.90
770;DHT22;368;48.698;9.116;2023-05-07T05:57:04;15.50;99.90
770;DHT22;368;48.698;9.116;2023-05-07T05:59:32;16.00;99.90
770;DHT22;368;48.698;9.116;2023-05-07T06:01:59;16.60;99.90
770;DHT22;368;48.698;9.116;2023-05-07T06:04:27;16.60;99.90
770;DHT22;368;48.698;9.116;2023-05-07T06:06:53;16.50;99.90
770;DHT22;368;48.698;9.116;2023-05-07T06:09:20;17.10;99.90
770;DHT22;368;48.698;9.116;2023-05-07T06:11:47;17.50;99.90
770;DHT22;368;48.698;9.116;2023-05-07T06:30:09;17.70;99.90
770;DHT22;368;48.698;9.116;2023-05-07T06:32:36;19.20;97.70
770;DHT22;368;48.698;9.116;2023-05-07T06:35:04;19.40;97.00
770;DHT22;368;48.698;9.116;2023-05-07T06:37:30;19.50;97.70
770;DHT22;368;48.698;9.116;2023-05-07T06:39:57;20.30;97.00
770;DHT22;368;48.698;9.116;2023-05-07T06:42:24;20.20;96.70
770;DHT22;368;48.698;9.116;2023-05-07T06:44:51;20.30;96.60
770;DHT22;368;48.698;9.116;2023-05-07T06:47:20;20.30;96.70
770;DHT22;368;48.698;9.116;2023-05-07T06:49:46;20.00;95.60
770;DHT22;368;48.698;9.116;2023-05-07T06:52:13;19.50;97.10
770;DHT22;368;48.698;9.116;2023-05-07T06:54:40;20.10;97.20
770;DHT22;368;48.698;9.116;2023-05-07T06:57:07;21.30;95.70
770;DHT22;368;48.698;9.116;2023-05-07T06:59:34;21.30;95.10
770;DHT22;368;48.698;9.116;2023-05-07T07:02:00;21.50;94.70
770;DHT22;368;48.698;9.116;2023-05-07T07:04:29;21.10;95.50
770;DHT22;368;48.698;9.116;2023-05-07T07:06:56;21.50;93.70
770;DHT22;368;48.698;9.116;2023-05-07T07:09:23;21.80;94.50
770;DHT22;368;48.698;9.116;2023-05-07T07:11:49;22.40;93.70
770;DHT22;368;48.698;9.116;2023-05-07T07:14:16;22.50;93.10
770;DHT22;368;48.698;9.116;2023-05-07T07:16:43;22.40;92.10
770;DHT22;368;48.698;9.116;2023-05-07T07:19:12;22.20;92.80
770;DHT22;368;48.698;9.116;2023-05-07T07:21:42;23.20;93.20
770;DHT22;368;48.698;9.116;2023-05-07T07:24:08;22.80;92.20
770;DHT22;368;48.698;9.116;2023-05-07T07:26:35;22.60;93.60
770;DHT22;368;48.698;9.116;2023-05-07T07:29:02;23.40;91.20
770;DHT22;368;48.698;9.116;2023-05-07T07:31:29;23.40;92.00
770;DHT22;368;48.698;9.116;2023-05-07T07:33:56;24.20;91.20
770;DHT22;368;48.698;9.116;2023-05-07T07:36:23;23.80;91.40
770;DHT22;368;48.698;9.116;2023-05-07T07:41:43;24.90;90.90
770;DHT22;368;48.698;9.116;2023-05-07T07:44:09;25.00;89.30
770;DHT22;368;48.698;9.116;2023-05-07T07:46:38;24.80;86.60
770;DHT22;368;48.698;9.116;2023-05-07T07:49:05;24.30;87.70
770;DHT22;368;48.698;9.116;2023-05-07T07:51:32;24.30;90.00
770;DHT22;368;48.698;9.116;2023-05-07T07:53:59;24.80;87.40
770;DHT22;368;48.698;9.116;2023-05-07T07:56:28;24.30;89.50
770;DHT22;368;48.698;9.116;2023-05-07T07:58:56;24.50;88.80
770;DHT22;368;48.698;9.116;2023-05-07T08:01:22;24.30;86.80
770;DHT22;368;48.698;9.116;2023-05-07T08:03:49;24.60;88.70
770;DHT22;368;48.698;9.116;2023-05-07T08:06:16;25.60;85.00
770;DHT22;368;48.698;9.116;2023-05-07T08:08:43;25.50;87.40
770;DHT22;368;48.698;9.116;2023-05-07T08:11:10;25.20;84.10
770;DHT22;368;48.698;9.116;2023-05-07T08:13:38;25.90;83.40
770;DHT22;368;48.698;9.116;2023-05-07T08:16:06;25.70;83.20
770;DHT22;368;48.698;9.116;2023-05-07T08:18:33;24.90;83.40
770;DHT22;368;48.698;9.116;2023-05-07T08:21:00;24.30;85.40
770;DHT22;368;48.698;9.116;2023-05-07T08:23:27;25.30;85.80
770;DHT22;368;48.698;9.116;2023-05-07T08:25:54;26.40;81.30
770;DHT22;368;48.698;9.116;2023-05-07T08:28:21;26.50;79.70
770;DHT22;368;48.698;9.116;2023-05-07T08:30:50;27.20;81.60
770;DHT22;368;48.698;9.116;2023-05-07T08:33:18;27.80;76.00
770;DHT22;368;48.698;9.116;2023-05-07T08:35:46;27.50;77.90
770;DHT22;368;48.698;9.116;2023-05-07T08:38:12;27.40;79.40
770;DHT22;368;48.698;9.116;2023-05-07T08:40:40;26.90;77.20
770;DHT22;368;48.698;9.116;2023-05-07T08:43:07;28.30;73.70
770;DHT22;368;48.698;9.116;2023-05-07T08:45:35;27.70;73.10
770;DHT22;368;48.698;9.116;2023-05-07T08:48:03;27.00;75.70
770;DHT22;368;48.698;9.116;2023-05-07T08:50:35;26.60;77.60
770;DHT22;368;48.698;9.116;2023-05-07T08:53:03;27.20;75.80
770;DHT22;368;48.698;9.116;2023-05-07T08:55:30;27.70;77.70
770;DHT22;368;48.698;9.116;2023-05-07T08:57:57;27.20;79.00
770;DHT22;368;48.698;9.116;2023-05-07T09:00:23;28.70;79.10
770;DHT22;368;48.698;9.116;2023-05-07T09:02:51;29.40;73.70
770;DHT22;368;48.698;9.116;2023-05-07T09:05:18;27.70;77.50
770;DHT22;368;48.698;9.116;2023-05-07T09:07:47;26.70;78.20
770;DHT22;368;48.698;9.116;2023-05-07T09:10:14;27.70;78.00
770;DHT22;368;48.698;9.116;2023-05-07T09:12:41;27.50;77.50
770;DHT22;368;48.698;9.116;2023-05-07T09:15:09;27.30;77.10
770;DHT22;368;48.698;9.116;2023-05-07T09:17:35;26.70;80.90
770;DHT22;368;48.698;9.116;2023-05-07T09:20:03;27.90;78.90
770;DHT22;368;48.698;9.116;2023-05-07T09:22:31;27.70;75.40
770;DHT22;368;48.698;9.116;2023-05-07T09:25:00;28.80;75.90
770;DHT22;368;48.698;9.116;2023-05-07T09:27:26;27.60;77.20
770;DHT22;368;48.698;9.116;2023-05-07T09:29:53;26.90;76.00
770;DHT22;368;48.698;9.116;2023-05-07T09:32:20;26.40;78.20
770;DHT22;368;48.698;9.116;2023-05-07T09:34:47;27.40;76.00
770;DHT22;368;48.698;9.116;2023-05-07T09:37:13;28.60;75.00
770;DHT22;368;48.698;9.116;2023-05-07T09:39:41;29.20;73.70
770;DHT22;368;48.698;9.116;2023-05-07T09:42:09;28.90;75.20
770;DHT22;368;48.698;9.116;2023-05-07T09:44:37;28.80;74.30
770;DHT22;368;48.698;9.116;2023-05-07T09:47:05;27.90;73.30
770;DHT22;368;48.698;9.116;2023-05-07T09:49:35;28.60;71.80
770;DHT22;368;48.698;9.116;2023-05-07T09:52:03;28.50;75.50
770;DHT22;368;48.698;9.116;2023-05-07T09:54:32;28.20;73.00
770;DHT22;368;48.698;9.116;2023-05-07T09:57:00;28.00;72.70
770;DHT22;368;48.698;9.116;2023-05-07T09:59:32;29.30;70.80
770;DHT22;368;48.698;9.116;2023-05-07T10:02:00;29.30;68.30
770;DHT22;368;48.698;9.116;2023-05-07T10:04:28;27.80;72.10
770;DHT22;368;48.698;9.116;2023-05-07T10:06:55;28.00;74.50
770;DHT22;368;48.698;9.116;2023-05-07T10:09:23;28.20;76.20
770;DHT22;368;48.698;9.116;2023-05-07T10:11:51;28.70;73.60
770;DHT22;368;48.698;9.116;2023-05-07T10:14:19;28.30;75.30
770;DHT22;368;48.698;9.116;2023-05-07T10:16:48;28.80;74.80
770;DHT22;368;48.698;9.116;2023-05-07T10:19:15;27.70;71.10
770;DHT22;368;48.698;9.116;2023-05-07T10:21:48;27.30;76.80
770;DHT22;368;48.698;9.116;2023-05-07T10:24:20;28.80;73.60
770;DHT22;368;48.698;9.116;2023-05-07T10:26:50;28.80;68.00
770;DHT22;368;48.698;9.116;2023-05-07T10:29:24;27.70;71.90
770;DHT22;368;48.698;9.116;2023-05-07T10:31:59;29.60;71.50
770;DHT22;368;48.698;9.116;2023-05-07T10:34:37;29.50;69.70
770;DHT22;368;48.698;9.116;2023-05-07T10:37:04;30.20;67.70
770;DHT22;368;48.698;9.116;2023-05-07T10:39:32;29.70;68.10
770;DHT22;368;48.698;9.116;2023-05-07T10:42:07;29.30;71.30
770;DHT22;368;48.698;9.116;2023-05-07T10:44:34;30.00;67.00
770;DHT22;368;48.698;9.116;2023-05-07T10:47:08;29.90;65.60
770;DHT22;368;48.698;9.116;2023-05-07T10:49:36;31.80;66.80
770;DHT22;368;48.698;9.116;2023-05-07T10:52:14;31.90;63.60
770;DHT22;368;48.698;9.116;2023-05-07T10:54:41;30.80;61.60
770;DHT22;368;48.698;9.116;2023-05-07T10:57:33;27.50;68.90
770;DHT22;368;48.698;9.116;2023-05-07T11:00:02;26.80;73.30
770;DHT22;368;48.698;9.116;2023-05-07T11:03:08;26.50;73.40
770;DHT22;368;48.698;9.116;2023-05-07T11:05:35;26.30;75.90
770;DHT22;368;48.698;9.116;2023-05-07T11:08:03;26.10;76.30
770;DHT22;368;48.698;9.116;2023-05-07T11:10:55;26.50;74.40
770;DHT22;368;48.698;9.116;2023-05-07T11:13:43;27.20;71.10
770;DHT22;368;48.698;9.116;2023-05-07T11:16:20;26.00;72.70
770;DHT22;368;48.698;9.116;2023-05-07T11:18:50;26.50;75.40
770;DHT22;368;48.698;9.116;2023-05-07T11:21:34;26.70;72.70
770;DHT22;368;48.698;9.116;2023-05-07T11:24:03;25.90;74.60
770;DHT22;368;48.698;9.116;2023-05-07T11:26:31;25.70;72.80
770;DHT22;368;48.698;9.116;2023-05-07T11:28:58;24.90;74.80
770;DHT22;368;48.698;9.116;2023-05-07T11:31:27;25.20;78.60
770;DHT22;368;48.698;9.116;2023-05-07T11:33:57;25.20;76.70
770;DHT22;368;48.698;9.116;2023-05-07T11:36:24;24.70;74.50
770;DHT22;368;48.698;9.116;2023-05-07T11:38:51;24.80;74.50
770;DHT22;368;48.698;9.116;2023-05-07T11:41:19;24.40;74.90
770;DHT22;368;48.698;9.116;2023-05-07T11:43:57;24.40;76.80
770;DHT22;368;48.698;9.116;2023-05-07T11:46:24;24.50;76.80
770;DHT22;368;48.698;9.116;2023-05-07T11:48:51;24.30;81.90
770;DHT22;368;48.698;9.116;2023-05-07T11:51:23;24.40;78.30
770;DHT22;368;48.698;9.116;2023-05-07T11:53:51;24.40;78.80
770;DHT22;368;48.698;9.116;2023-05-07T11:56:18;24.20;74.70
770;DHT22;368;48.698;9.116;2023-05-07T11:58:47;24.00;77.00
770;DHT22;368;48.698;9.116;2023-05-07T12:01:15;23.60;74.10
770;DHT22;368;48.698;9.116;2023-05-07T12:03:44;23.40;81.00
770;DHT22;368;48.698;9.116;2023-05-07T12:06:12;23.50;77.50
770;DHT22;368;48.698;9.116;2023-05-07T12:08:41;23.20;80.10
770;DHT22;368;48.698;9.116;2023-05-07T12:11:10;22.60;82.50
770;DHT22;368;48.698;9.116;2023-05-07T12:13:37;21.40;86.50
770;DHT22;368;48.698;9.116;2023-05-07T12:16:06;21.10;87.00
770;DHT22;368;48.698;9.116;2023-05-07T12:18:35;20.90;85.30
770;DHT22;368;48.698;9.116;2023-05-07T12:21:02;20.50;84.10
770;DHT22;368;48.698;9.116;2023-05-07T12:23:30;20.00;82.10
770;DHT22;368;48.698;9.116;2023-05-07T12:25:59;20.00;83.60
770;DHT22;368;48.698;9.116;2023-05-07T12:28:26;19.80;83.30
770;DHT22;368;48.698;9.116;2023-05-07T12:30:53;19.60;84.50
770;DHT22;368;48.698;9.116;2023-05-07T12:33:24;19.30;85.70
770;DHT22;368;48.698;9.116;2023-05-07T12:35:54;19.10;87.80
770;DHT22;368;48.698;9.116;2023-05-07T12:38:21;18.90;90.00
770;DHT22;368;48.698;9.116;2023-05-07T12:40:49;18.80;92.00
770;DHT22;368;48.698;9.116;2023-05-07T12:43:19;18.50;94.00
770;DHT22;368;48.698;9.116;2023-05-07T12:45:49;18.10;95.10
770;DHT22;368;48.698;9.116;2023-05-07T12:48:17;18.00;97.40
770;DHT22;368;48.698;9.116;2023-05-07T12:50:44;17.90;97.80
770;DHT22;368;48.698;9.116;2023-05-07T12:53:12;17.80;99.70
770;DHT22;368;48.698;9.116;2023-05-07T12:55:41;17.70;99.90
770;DHT22;368;48.698;9.116;2023-05-07T12:58:24;17.60;99.90
770;DHT22;368;48.698;9.116;2023-05-07T13:00:51;17.20;99.90
770;DHT22;368;48.698;9.116;2023-05-07T13:03:22;16.80;99.90
770;DHT22;368;48.698;9.116;2023-05-07T13:05:50;16.70;99.90
770;DHT22;368;48.698;9.116;2023-05-07T13:08:27;16.60;99.90
770;DHT22;368;48.698;9.116;2023-05-07T13:10:54;15.80;99.90
770;DHT22;368;48.698;9.116;2023-05-07T13:13:22;15.60;99.90
770;DHT22;368;48.698;9.116;2023-05-07T13:15:49;15.50;99.90
770;DHT22;368;48.698;9.116;2023-05-07T13:18:16;15.60;99.90
770;DHT22;368;48.698;9.116;2023-05-07T13:20:43;15.70;99.90
770;DHT22;368;48.698;9.116;2023-05-07T13:23:10;15.80;99.90
770;DHT22;368;48.698;9.116;2023-05-07T13:25:37;15.70;99.90
770;DHT22;368;48.698;9.116;2023-05-07T13:28:05;15.40;99.90
770;DHT22;368;48.698;9.116;2023-05-07T13:30:35;15.40;99.90
770;DHT22;368;48.698;9.116;2023-05-07T13:33:02;15.50;99.90
770;DHT22;368;48.698;9.116;2023-05-07T13:35:29;15.50;99.90
770;DHT22;368;48.698;9.116;2023-05-07T13:37:56;15.40;99.90
770;DHT22;368;48.698;9.116;2023-05-07T13:40:23;15.50;99.90
770;DHT22;368;48.698;9.116;2023-05-07T13:42:50;15.70;99.90
770;DHT22;368;48.698;9.116;2023-05-07T13:45:18;15.60;99.90
770;DHT22;368;48.698;9.116;2023-05-07T13:47:46;15.30;99.90
770;DHT22;368;48.698;9.116;2023-05-07T13:50:15;15.20;99.90
770;DHT22;368;48.698;9.116;2023-05-07T13:52:44;14.90;99.90
770;DHT22;368;48.698;9.116;2023-05-07T13:55:16;14.90;99.90
770;DHT22;368;48.698;9.116;2023-05-07T13:57:42;14.70;99.90
770;DHT22;368;48.698;9.116;2023-05-07T14:00:10;14.60;99.90
770;DHT22;368;48.698;9.116;2023-05-07T14:02:38;14.70;99.90
770;DHT22;368;48.698;9.116;2023-05-07T14:05:07;14.60;99.90
770;DHT22;368;48.698;9.116;2023-05-07T14:07:34;14.60;99.90
770;DHT22;368;48.698;9.116;2023-05-07T14:10:01;14.70;99.90
770;DHT22;368;48.698;9.116;2023-05-07T14:12:28;14.60;99.90
770;DHT22;368;48.698;9.116;2023-05-07T14:14:55;14.70;99.90
770;DHT22;368;48.698;9.116;2023-05-07T14:17:22;14.80;99.90
770;DHT22;368;48.698;9.116;2023-05-07T14:19:50;14.70;99.90
770;DHT22;368;48.698;9.116;2023-05-07T14:22:20;14.80;99.90
770;DHT22;368;48.698;9.116;2023-05-07T14:24:49;14.90;99.90
770;DHT22;368;48.698;9.116;2023-05-07T14:27:16;14.70;99.90
770;DHT22;368;48.698;9.116;2023-05-07T14:29:43;14.60;99.90
770;DHT22;368;48.698;9.116;2023-05-07T14:32:11;14.50;99.90
770;DHT22;368;48.698;9.116;2023-05-07T14:34:38;14.60;99.90
770;DHT22;368;48.698;9.116;2023-05-07T14:37:05;14.80;99.90
770;DHT22;368;48.698;9.116;2023-05-07T14:39:33;14.70;99.90
770;DHT22;368;48.698;9.116;2023-05-07T14:42:00;14.80;99.90
770;DHT22;368;48.698;9.116;2023-05-07T14:44:27;14.80;99.90
770;DHT22;368;48.698;9.116;2023-05-07T14:46:53;14.90;99.90
770;DHT22;368;48.698;9.116;2023-05-07T14:49:20;14.80;99.90
770;DHT22;368;48.698;9.116;2023-05-07T14:51:47;15.00;99.90
770;DHT22;368;48.698;9.116;2023-05-07T14:54:14;15.10;99.90
770;DHT22;368;48.698;9.116;2023-05-07T14:56:42;15.40;99.90
770;DHT22;368;48.698;9.116;2023-05-07T14:59:09;15.40;99.90
770;DHT22;368;48.698;9.116;2023-05-07T15:01:37;15.50;99.90
770;DHT22;368;48.698;9.116;2023-05-07T15:04:06;15.40;99.90
770;DHT22;368;48.698;9.116;2023-05-07T15:06:32;15.40;99.90
770;DHT22;368;48.698;9.116;2023-05-07T15:09:00;15.40;99.90
770;DHT22;368;48.698;9.116;2023-05-07T15:11:26;15.40;99.90
770;DHT22;368;48.698;9.116;2023-05-07T15:13:54;15.40;99.90
770;DHT22;368;48.698;9.116;2023-05-07T15:16:22;15.60;99.90
770;DHT22;368;48.698;9.116;2023-05-07T15:18:49;15.70;99.90
770;DHT22;368;48.698;9.116;2023-05-07T15:21:16;15.90;99.90
770;DHT22;368;48.698;9.116;2023-05-07T15:23:43;16.00;99.90
770;DHT22;368;48.698;9.116;2023-05-07T15:26:11;16.10;99.90
770;DHT22;368;48.698;9.116;2023-05-07T15:28:37;16.00;99.90
770;DHT22;368;48.698;9.116;2023-05-07T15:31:06;15.90;99.90
770;DHT22;368;48.698;9.116;2023-05-07T15:33:33;16.00;99.90
770;DHT22;368;48.698;9.116;2023-05-07T15:36:01;16.20;99.90
770;DHT22;368;48.698;9.116;2023-05-07T15:38:28;16.40;99.90
770;DHT22;368;48.698;9.116;2023-05-07T15:40:55;16.60;99.90
770;DHT22;368;48.698;9.116;2023-05-07T15:43:22;16.80;99.90
770;DHT22;368;48.698;9.116;2023-05-07T15:45:50;16.50;99.90
770;DHT22;368;48.698;9.116;2023-05-07T15:48:18;16.20;99.90
770;DHT22;368;48.698;9.116;2023-05-07T15:50:45;16.30;99.90
770;DHT22;368;48.698;9.116;2023-05-07T15:53:13;16.40;99.90
770;DHT22;368;48.698;9.116;2023-05-07T15:55:41;16.40;99.90
770;DHT22;368;48.698;9.116;2023-05-07T15:58:08;16.30;99.90
770;DHT22;368;48.698;9.116;2023-05-07T16:00:35;16.50;99.90
770;DHT22;368;48.698;9.116;2023-05-07T16:03:05;16.60;99.90
770;DHT22;368;48.698;9.116;2023-05-07T16:05:33;17.10;99.90
770;DHT22;368;48.698;9.116;2023-05-07T16:08:00;17.10;99.90
770;DHT22;368;48.698;9.116;2023-05-07T16:10:28;17.20;99.90
770;DHT22;368;48.698;9.116;2023-05-07T16:12:55;17.20;99.90
770;DHT22;368;48.698;9.116;2023-05-07T16:15:22;17.10;99.90
770;DHT22;368;48.698;9.116;2023-05-07T16:17:49;17.10;99.90
770;DHT22;368;48.698;9.116;2023-05-07T16:20:16;16.90;99.90
770;DHT22;368;48.698;9.116;2023-05-07T16:22:48;16.80;99.90
770;DHT22;368;48.698;9.116;2023-05-07T16:25:15;16.90;99.90
770;DHT22;368;48.698;9.116;2023-05-07T16:27:42;16.70;99.90
770;DHT22;368;48.698;9.116;2023-05-07T16:30:10;16.60;99.90
770;DHT22;368;48.698;9.116;2023-05-07T16:32:37;16.70;99.90
770;DHT22;368;48.698;9.116;2023-05-07T16:35:04;16.60;99.90
770;DHT22;368;48.698;9.116;2023-05-07T16:37:32;16.50;99.90
770;DHT22;368;48.698;9.116;2023-05-07T16:40:01;16.20;99.90
770;DHT22;368;48.698;9.116;2023-05-07T16:42:31;16.30;99.90
770;DHT22;368;48.698;9.116;2023-05-07T16:44:58;16.20;99.90
770;DHT22;368;48.698;9.116;2023-05-07T16:47:26;16.10;99.90
770;DHT22;368;48.698;9.116;2023-05-07T16:49:53;15.90;99.90
770;DHT22;368;48.698;9.116;2023-05-07T16:52:20;16.00;99.90
770;DHT22;368;48.698;9.116;2023-05-07T16:54:47;15.90;99.90
770;DHT22;368;48.698;9.116;2023-05-07T16:57:15;15.70;99.90